Time;durP1;ratioP1;P1;durP2;ratioP2;P2;SDS_P1;SDS_P2;PMS_P1;PMS_P2;Temp;Humidity;BMP_temperature;BMP_pressure;BME280_temperature;BME280_humidity;BME280_pressure;Samples;Min_cycle;Max_cycle;Signal;HPM_P1;HPM_P2
2024/03/29 00:00:25;;;;;;;;;;;;;;;;;;5090857;28;19966;-52
2024/03/29 00:02:51;;;;;;;;;;;;;;;;;;5091085;28;20234;-52
2024/03/29 00:05:17;;;;;;;;;;;;;;;;;;5090412;28;19962;-52
2024/03/29 00:07:42;;;;;;;;;;;;;;;;;;5087463;28;19952;-52
2024/03/29 00:10:08;;;;;;;;;;;;;;;;;;5090455;28;20001;-52
2024/03/29 00:12:34;;;;;;;;;;;;;;;;;;5090333;28;19994;-51
2024/03/29 00:15:00;;;;;;;;;;;;;;;;;;5090701;28;19952;-52
2024/03/29 00:17:26;;;;;;;;;;;;;;;;;;5090933;28;20340;-52
2024/03/29 00:19:52;;;;;;;;;;;;;;;;;;5090295;28;20386;-52
2024/03/29 00:22:18;;;;;;;;;;;;;;;;;;5090064;28;19986;-52
2024/03/29 00:24:44;;;;;;;;;;;;;;;;;;5090388;28;19951;-53
2024/03/29 00:27:10;;;;;;;;;;;;;;;;;;5090750;28;19919;-52
2024/03/29 00:29:36;;;;;;;;;;;;;;;;;;5090519;28;20025;-52
2024/03/29 00:32:02;;;;;;;;;;;;;;;;;;5090122;28;19916;-52
2024/03/29 00:34:28;;;;;;;;;;;;;;;;;;5090522;28;20328;-52
2024/03/29 00:36:54;;;;;;;;;;;;;;;;;;5090803;28;19969;-52
2024/03/29 00:39:20;;;;;;;;;;;;;;;;;;5089923;28;20387;-52
2024/03/29 00:41:46;;;;;;;;;;;;;;;;;;5090303;28;19973;-52
2024/03/29 00:44:12;;;;;;;;;;;;;;;;;;5090386;28;20005;-53
2024/03/29 00:46:38;;;;;;;;;;;;;;;;;;5093679;28;19978;-53
2024/03/29 00:49:04;;;;;;;;;;;;;;;;;;5090295;28;19963;-52
2024/03/29 00:51:30;;;;;;;;;;;;;;;;;;5090009;28;19943;-52
2024/03/29 00:53:56;;;;;;;;;;;;;;;;;;5090032;28;20573;-52
2024/03/29 00:56:22;;;;;;;;;;;;;;;;;;5090576;28;20364;-53
2024/03/29 00:58:47;;;;;;;;;;;;;;;;;;5088988;28;19958;-52
2024/03/29 01:01:14;;;;;;;;;;;;;;;;;;5089168;28;20008;-53
2024/03/29 01:03:40;;;;;;;;;;;;;;;;;;5087330;28;20306;-53
2024/03/29 01:06:06;;;;;;;;;;;;;;;;;;5090063;28;19912;-54
2024/03/29 01:08:31;;;;;;;;;;;;;;;;;;5088085;28;19956;-53
2024/03/29 01:10:57;;;;;;;;;;;;;;;;;;5090074;28;20443;-53
2024/03/29 01:13:23;;;;;;;;;;;;;;;;;;5089699;28;20411;-53
2024/03/29 01:15:49;;;;;;;;;;;;;;;;;;5089348;28;19959;-53
2024/03/29 01:18:15;;;;;;;;;;;;;;;;;;5089043;28;19944;-53
2024/03/29 01:20:41;;;;;;;;;;;;;;;;;;5088950;28;19963;-53
2024/03/29 01:23:07;;;;;;;;;;;;;;;;;;5089018;28;20036;-54
2024/03/29 01:25:33;;;;;;;;;;;;;;;;;;5088770;28;20472;-53
2024/03/29 01:27:59;;;;;;;;;;;;;;;;;;5089779;28;19920;-53
2024/03/29 01:30:26;;;;;;;;;;;;;;;;;;5089470;28;20129;-54
2024/03/29 01:32:52;;;;;;;;;;;;;;;;;;5089180;28;19963;-53
2024/03/29 01:35:18;;;;;;;;;;;;;;;;;;5088893;28;19956;-54
2024/03/29 01:37:44;;;;;;;;;;;;;;;;;;5088354;28;19959;-53
2024/03/29 01:40:10;;;;;;;;;;;;;;;;;;5089611;28;19993;-53
2024/03/29 01:42:36;;;;;;;;;;;;;;;;;;5088599;28;20338;-53
2024/03/29 01:45:02;;;;;;;;;;;;;;;;;;5089645;28;19952;-54
2024/03/29 01:47:28;;;;;;;;;;;;;;;;;;5089513;28;19967;-53
2024/03/29 01:49:54;;;;;;;;;;;;;;;;;;5088946;28;20356;-54
2024/03/29 01:52:20;;;;;;;;;;;;;;;;;;5089282;28;20382;-53
2024/03/29 01:54:46;;;;;;;;;;;;;;;;;;5088363;28;20462;-54
2024/03/29 01:57:11;;;;;;;;;;;;;;;;;;5089858;28;19951;-54
2024/03/29 01:59:37;;;;;;;;;;;;;;;;;;5088656;28;19963;-53
2024/03/29 02:02:04;;;;;;;;;;;;;;;;;;5088864;28;19913;-53
2024/03/29 02:04:30;;;;;;;;;;;;;;;;;;5089255;28;19965;-53
2024/03/29 02:06:56;;;;;;;;;;;;;;;;;;5088786;28;19970;-54
2024/03/29 02:09:21;;;;;;;;;;;;;;;;;;5088543;28;20392;-54
2024/03/29 02:11:47;;;;;;;;;;;;;;;;;;5089227;28;19966;-54
2024/03/29 02:14:13;;;;;;;;;;;;;;;;;;5087837;28;20343;-54
2024/03/29 02:16:39;;;;;;;;;;;;;;;;;;5088634;28;20354;-53
2024/03/29 02:19:05;;;;;;;;;;;;;;;;;;5088666;28;20635;-53
2024/03/29 02:21:31;;;;;;;;;;;;;;;;;;5088087;28;20005;-53
2024/03/29 02:23:57;;;;;;;;;;;;;;;;;;5087937;28;19978;-54
2024/03/29 02:26:25;;;;;;;;;;;;;;;;;;5088604;28;20387;-53
2024/03/29 02:28:51;;;;;;;;;;;;;;;;;;5088249;28;20022;-54
2024/03/29 02:31:17;;;;;;;;;;;;;;;;;;5088238;28;20308;-54
2024/03/29 02:33:43;;;;;;;;;;;;;;;;;;5088807;28;19957;-53
2024/03/29 02:36:10;;;;;;;;;;;;;;;;;;5087728;28;19965;-54
2024/03/29 02:38:36;;;;;;;;;;;;;;;;;;5087533;28;19916;-54
2024/03/29 02:41:02;;;;;;;;;;;;;;;;;;5088221;28;19918;-54
2024/03/29 02:43:28;;;;;;;;;;;;;;;;;;5083566;28;19920;-54
2024/03/29 02:45:54;;;;;;;;;;;;;;;;;;5092740;28;19931;-53
2024/03/29 02:48:20;;;;;;;;;;;;;;;;;;5092959;28;19938;-53
2024/03/29 02:50:46;;;;;;;;;;;;;;;;;;5090761;28;20026;-53
2024/03/29 02:53:12;;;;;;;;;;;;;;;;;;5092207;28;19966;-54
2024/03/29 02:55:38;;;;;;;;;;;;;;;;;;5092903;28;19923;-54
2024/03/29 02:58:04;;;;;;;;;;;;;;;;;;5092258;28;19951;-53
2024/03/29 03:00:30;;;;;;;;;;;;;;;;;;5091205;28;20001;-53
2024/03/29 03:02:56;;;;;;;;;;;;;;;;;;5092810;28;20346;-53
2024/03/29 03:05:22;;;;;;;;;;;;;;;;;;5090932;28;20456;-53
2024/03/29 03:13:17;;;;;;;;;;;;;;;;;;5091197;28;19939;-52
2024/03/29 03:15:43;;;;;;;;;;;;;;;;;;5092271;28;20359;-53
2024/03/29 03:18:09;;;;;;;;;;;;;;;;;;5090722;28;19963;-54
2024/03/29 03:20:35;;;;;;;;;;;;;;;;;;5091308;28;19916;-54
2024/03/29 03:23:01;;;;;;;;;;;;;;;;;;5091145;28;20255;-53
2024/03/29 03:25:27;;;;;;;;;;;;;;;;;;5091882;28;19974;-53
2024/03/29 03:27:53;;;;;;;;;;;;;;;;;;5090740;28;19955;-53
2024/03/29 03:30:18;;;;;;;;;;;;;;;;;;5091541;28;19967;-53
2024/03/29 03:32:44;;;;;;;;;;;;;;;;;;5091487;28;19955;-54
2024/03/29 03:35:10;;;;;;;;;;;;;;;;;;5090376;28;20020;-54
2024/03/29 03:37:36;;;;;;;;;;;;;;;;;;5091220;28;20074;-54
2024/03/29 03:40:04;;;;;;;;;;;;;;;;;;5092420;28;20511;-53
2024/03/29 03:42:30;;;;;;;;;;;;;;;;;;5091423;28;19920;-54
2024/03/29 03:44:56;;;;;;;;;;;;;;;;;;5091398;28;20270;-54
2024/03/29 03:47:22;;;;;;;;;;;;;;;;;;5091905;28;19923;-54
2024/03/29 03:49:48;;;;;;;;;;;;;;;;;;5090531;28;20031;-53
2024/03/29 03:52:14;;;;;;;;;;;;;;;;;;5091453;28;19962;-53
2024/03/29 03:54:40;;;;;;;;;;;;;;;;;;5090525;28;19962;-54
2024/03/29 03:57:05;;;;;;;;;;;;;;;;;;5091971;28;19948;-54
2024/03/29 03:59:31;;;;;;;;;;;;;;;;;;5091334;28;19944;-53
2024/03/29 04:01:57;;;;;;;;;;;;;;;;;;5091222;28;19955;-53
2024/03/29 04:04:23;;;;;;;;;;;;;;;;;;5091414;28;19919;-54
2024/03/29 04:06:49;;;;;;;;;;;;;;;;;;5090692;28;19955;-54
2024/03/29 04:09:18;;;;;;;;;;;;;;;;;;5090881;28;19967;-53
2024/03/29 04:11:44;;;;;;;;;;;;;;;;;;5091528;28;20371;-53
2024/03/29 04:14:10;;;;;;;;;;;;;;;;;;5089932;28;19952;-53
2024/03/29 04:16:36;;;;;;;;;;;;;;;;;;5089857;28;19959;-53
2024/03/29 04:19:02;;;;;;;;;;;;;;;;;;5091024;28;19966;-53
2024/03/29 04:21:28;;;;;;;;;;;;;;;;;;5090168;28;19916;-53
2024/03/29 04:23:54;;;;;;;;;;;;;;;;;;5089399;28;19963;-54
2024/03/29 04:26:20;;;;;;;;;;;;;;;;;;5090744;28;19963;-54
2024/03/29 04:28:45;;;;;;;;;;;;;;;;;;5090313;28;19966;-54
2024/03/29 04:31:12;;;;;;;;;;;;;;;;;;5090696;28;20016;-53
2024/03/29 04:33:38;;;;;;;;;;;;;;;;;;5090978;28;20664;-53
2024/03/29 04:36:04;;;;;;;;;;;;;;;;;;5090056;28;19912;-58
2024/03/29 04:38:30;;;;;;;;;;;;;;;;;;5089967;28;19922;-57
2024/03/29 04:40:56;;;;;;;;;;;;;;;;;;5090626;28;20005;-57
2024/03/29 04:43:22;;;;;;;;;;;;;;;;;;5090080;28;20535;-58
2024/03/29 04:45:48;;;;;;;;;;;;;;;;;;5090670;28;20016;-57
2024/03/29 04:48:14;;;;;;;;;;;;;;;;;;5090086;28;19939;-57
2024/03/29 04:50:40;;;;;;;;;;;;;;;;;;5090454;28;21752;-58
2024/03/29 04:53:07;;;;;;;;;;;;;;;;;;5090020;28;19912;-58
2024/03/29 04:55:33;;;;;;;;;;;;;;;;;;5090487;28;19912;-58
2024/03/29 04:57:58;;;;;;;;;;;;;;;;;;5089113;28;19955;-57
2024/03/29 05:00:24;;;;;;;;;;;;;;;;;;5089097;28;19971;-57
2024/03/29 05:02:50;;;;;;;;;;;;;;;;;;5089549;28;19967;-57
2024/03/29 05:05:16;;;;;;;;;;;;;;;;;;5088823;28;19951;-57
2024/03/29 05:07:42;;;;;;;;;;;;;;;;;;5089241;28;20278;-57
2024/03/29 05:10:09;;;;;;;;;;;;;;;;;;5089921;28;20561;-57
2024/03/29 05:12:35;;;;;;;;;;;;;;;;;;5089974;28;19966;-57
2024/03/29 05:15:01;;;;;;;;;;;;;;;;;;5090044;28;19955;-56
2024/03/29 05:17:27;;;;;;;;;;;;;;;;;;5089013;28;19955;-56
2024/03/29 05:19:53;;;;;;;;;;;;;;;;;;5089064;28;19912;-56
2024/03/29 05:22:19;;;;;;;;;;;;;;;;;;5090354;28;19966;-56
2024/03/29 05:24:45;;;;;;;;;;;;;;;;;;5080929;28;19959;-56
2024/03/29 05:27:11;;;;;;;;;;;;;;;;;;5090106;28;20339;-56
2024/03/29 05:29:37;;;;;;;;;;;;;;;;;;5089131;28;19970;-55
2024/03/29 05:32:04;;;;;;;;;;;;;;;;;;5089248;28;19970;-56
2024/03/29 05:34:30;;;;;;;;;;;;;;;;;;5088974;28;20375;-56
2024/03/29 05:36:56;;;;;;;;;;;;;;;;;;5088989;28;20002;-56
2024/03/29 05:39:21;;;;;;;;;;;;;;;;;;5088374;28;19962;-55
2024/03/29 05:41:47;;;;;;;;;;;;;;;;;;5088622;28;20013;-56
2024/03/29 05:44:13;;;;;;;;;;;;;;;;;;5088528;28;19959;-56
2024/03/29 05:46:40;;;;;;;;;;;;;;;;;;5088660;28;19965;-54
2024/03/29 05:49:06;;;;;;;;;;;;;;;;;;5088239;28;20085;-54
2024/03/29 05:51:32;;;;;;;;;;;;;;;;;;5089255;28;20427;-53
2024/03/29 05:53:58;;;;;;;;;;;;;;;;;;5086641;28;20367;-53
2024/03/29 05:56:24;;;;;;;;;;;;;;;;;;5088280;28;19959;-53
2024/03/29 05:58:49;;;;;;;;;;;;;;;;;;5086036;28;20224;-53
2024/03/29 06:01:15;;;;;;;;;;;;;;;;;;5088131;28;19947;-53
2024/03/29 06:03:41;;;;;;;;;;;;;;;;;;5088384;28;20017;-53
2024/03/29 06:06:07;;;;;;;;;;;;;;;;;;5088765;28;19966;-53
2024/03/29 06:08:33;;;;;;;;;;;;;;;;;;5088757;28;19962;-53
2024/03/29 06:11:01;;;;;;;;;;;;;;;;;;5086970;28;19916;-53
2024/03/29 06:17:22;;;;;;;;;;;;;;;;;;5088074;28;20381;-54
2024/03/29 06:19:00;;;;;;;;;;;;;;;;;;5086840;28;20433;-53
2024/03/29 06:21:26;;;;;;;;;;;;;;;;;;5087066;28;19924;-53
2024/03/29 06:23:52;;;;;;;;;;;;;;;;;;5088622;28;19982;-52
2024/03/29 06:26:18;;;;;;;;;;;;;;;;;;5088949;28;19966;-53
2024/03/29 06:28:44;;;;;;;;;;;;;;;;;;5088553;28;19947;-53
2024/03/29 06:31:10;;;;;;;;;;;;;;;;;;5089106;28;19955;-53
2024/03/29 06:33:36;;;;;;;;;;;;;;;;;;5088661;28;19979;-53
2024/03/29 06:36:02;;;;;;;;;;;;;;;;;;5088246;28;19959;-53
2024/03/29 06:38:28;;;;;;;;;;;;;;;;;;5087910;28;19959;-52
2024/03/29 06:40:53;;;;;;;;;;;;;;;;;;5088417;28;19981;-52
2024/03/29 06:43:19;;;;;;;;;;;;;;;;;;5088323;28;19956;-52
2024/03/29 06:45:45;;;;;;;;;;;;;;;;;;5088023;28;19986;-52
2024/03/29 06:48:11;;;;;;;;;;;;;;;;;;5088844;28;20014;-52
2024/03/29 06:50:38;;;;;;;;;;;;;;;;;;5087347;28;20261;-53
2024/03/29 06:53:04;;;;;;;;;;;;;;;;;;5089305;28;20263;-52
2024/03/29 06:55:30;;;;;;;;;;;;;;;;;;5088071;28;19978;-53
2024/03/29 06:57:56;;;;;;;;;;;;;;;;;;5087414;28;20047;-55
2024/03/29 07:00:22;;;;;;;;;;;;;;;;;;5087700;28;19920;-55
2024/03/29 07:02:48;;;;;;;;;;;;;;;;;;5087920;28;19982;-55
2024/03/29 07:05:13;;;;;;;;;;;;;;;;;;5086521;28;19962;-55
2024/03/29 07:07:40;;;;;;;;;;;;;;;;;;5087644;28;19963;-55
2024/03/29 07:10:06;;;;;;;;;;;;;;;;;;5087685;28;19962;-55
2024/03/29 07:12:32;;;;;;;;;;;;;;;;;;5088710;28;20378;-55
2024/03/29 07:14:58;;;;;;;;;;;;;;;;;;5086479;28;20393;-55
2024/03/29 07:17:24;;;;;;;;;;;;;;;;;;5087691;28;19947;-56
2024/03/29 07:19:50;;;;;;;;;;;;;;;;;;5088421;28;19916;-56
2024/03/29 07:22:16;;;;;;;;;;;;;;;;;;5089912;28;19955;-55
2024/03/29 07:24:42;;;;;;;;;;;;;;;;;;5086440;28;21590;-55
2024/03/29 07:27:08;;;;;;;;;;;;;;;;;;5086498;28;20410;-56
2024/03/29 07:29:34;;;;;;;;;;;;;;;;;;5085284;28;19944;-55
2024/03/29 07:32:00;;;;;;;;;;;;;;;;;;5092004;28;20248;-55
2024/03/29 07:34:26;;;;;;;;;;;;;;;;;;5091688;28;20068;-56
2024/03/29 07:36:52;;;;;;;;;;;;;;;;;;5091776;28;19920;-55
2024/03/29 07:39:18;;;;;;;;;;;;;;;;;;5090971;28;19916;-54
2024/03/29 07:41:43;;;;;;;;;;;;;;;;;;5092511;28;20034;-55
2024/03/29 07:44:09;;;;;;;;;;;;;;;;;;5090709;28;19924;-56
2024/03/29 07:46:36;;;;;;;;;;;;;;;;;;5091856;28;19961;-55
2024/03/29 07:49:02;;;;;;;;;;;;;;;;;;5085418;28;19920;-55
2024/03/29 07:51:28;;;;;;;;;;;;;;;;;;5088885;28;20315;-55
2024/03/29 07:53:54;;;;;;;;;;;;;;;;;;5090298;28;19926;-56
2024/03/29 07:56:21;;;;;;;;;;;;;;;;;;5092454;28;20007;-55
2024/03/29 07:58:47;;;;;;;;;;;;;;;;;;5101215;28;19912;-56
2024/03/29 08:01:13;;;;;;;;;;;;;;;;;;5089791;28;19952;-56
2024/03/29 08:03:39;;;;;;;;;;;;;;;;;;5100783;28;20444;-57
2024/03/29 08:06:05;;;;;;;;;;;;;;;;;;5095569;28;20020;-56
2024/03/29 08:08:31;;;;;;;;;;;;;;;;;;5100365;28;20279;-51
2024/03/29 08:10:57;;;;;;;;;;;;;;;;;;5095038;28;19947;-52
2024/03/29 08:13:24;;;;;;;;;;;;;;;;;;5085688;28;19916;-51
2024/03/29 08:15:50;;;;;;;;;;;;;;;;;;5089335;27;19916;-51
2024/03/29 08:18:16;;;;;;;;;;;;;;;;;;5088891;28;20433;-53
2024/03/29 08:20:42;;;;;;;;;;;;;;;;;;5087515;28;20371;-50
2024/03/29 08:23:08;;;;;;;;;;;;;;;;;;5087700;28;20414;-52
2024/03/29 08:25:34;;;;;;;;;;;;;;;;;;5089671;28;19978;-51
2024/03/29 08:28:00;;;;;;;;;;;;;;;;;;5089208;28;19966;-53
2024/03/29 08:30:26;;;;;;;;;;;;;;;;;;5088670;28;20004;-51
2024/03/29 08:32:57;;;;;;;;;;;;;;;;;;5088236;28;19969;-52
2024/03/29 08:35:23;;;;;;;;;;;;;;;;;;5084363;28;19916;-52
2024/03/29 08:37:50;;;;;;;;;;;;;;;;;;5088475;28;19945;-52
2024/03/29 08:40:16;;;;;;;;;;;;;;;;;;5088657;28;19916;-52
2024/03/29 08:42:42;;;;;;;;;;;;;;;;;;5086276;28;19959;-51
2024/03/29 08:45:09;;;;;;;;;;;;;;;;;;5089059;28;20390;-52
2024/03/29 08:47:35;;;;;;;;;;;;;;;;;;5086321;28;20340;-51
2024/03/29 08:50:03;;;;;;;;;;;;;;;;;;5088457;28;19973;-52
2024/03/29 08:52:29;;;;;;;;;;;;;;;;;;5087692;28;20359;-52
2024/03/29 08:54:55;;;;;;;;;;;;;;;;;;5087010;28;19972;-51
2024/03/29 08:57:21;;;;;;;;;;;;;;;;;;5088121;28;19912;-53
2024/03/29 08:59:47;;;;;;;;;;;;;;;;;;5087022;28;20386;-53
2024/03/29 09:02:13;;;;;;;;;;;;;;;;;;5088014;28;19963;-52
2024/03/29 09:04:39;;;;;;;;;;;;;;;;;;5087097;28;20358;-53
2024/03/29 09:07:05;;;;;;;;;;;;;;;;;;5089701;28;20406;-51
2024/03/29 09:09:31;;;;;;;;;;;;;;;;;;5087632;28;19912;-51
2024/03/29 09:11:57;;;;;;;;;;;;;;;;;;5088994;28;19943;-52
2024/03/29 09:14:24;;;;;;;;;;;;;;;;;;5088703;28;20566;-52
2024/03/29 09:16:50;;;;;;;;;;;;;;;;;;5089104;28;19916;-53
2024/03/29 09:19:15;;;;;;;;;;;;;;;;;;5086639;28;20437;-53
2024/03/29 09:21:41;;;;;;;;;;;;;;;;;;5088007;28;19966;-53
2024/03/29 09:24:07;;;;;;;;;;;;;;;;;;5080324;28;19996;-53
2024/03/29 09:26:33;;;;;;;;;;;;;;;;;;5089082;28;20409;-53
2024/03/29 09:28:59;;;;;;;;;;;;;;;;;;5088111;28;20362;-54
2024/03/29 09:31:25;;;;;;;;;;;;;;;;;;5088788;28;19981;-53
2024/03/29 09:33:57;;;;;;;;;;;;;;;;;;5087820;28;19947;-53
2024/03/29 09:36:23;;;;;;;;;;;;;;;;;;5089253;28;20387;-53
2024/03/29 09:38:49;;;;;;;;;;;;;;;;;;5088196;28;20045;-53
2024/03/29 09:41:15;;;;;;;;;;;;;;;;;;5087169;28;19959;-53
2024/03/29 09:43:41;;;;;;;;;;;;;;;;;;5085286;28;19974;-54
2024/03/29 09:46:07;;;;;;;;;;;;;;;;;;5086733;28;19912;-54
2024/03/29 09:48:36;;;;;;;;;;;;;;;;;;5087559;28;19916;-54
2024/03/29 09:51:02;;;;;;;;;;;;;;;;;;5086293;28;20026;-54
2024/03/29 09:53:28;;;;;;;;;;;;;;;;;;5086561;28;20389;-53
2024/03/29 09:55:54;;;;;;;;;;;;;;;;;;5087141;28;20339;-54
2024/03/29 09:58:20;;;;;;;;;;;;;;;;;;5086678;28;19923;-53
2024/03/29 10:00:46;;;;;;;;;;;;;;;;;;5086963;28;19965;-53
2024/03/29 10:03:12;;;;;;;;;;;;;;;;;;5088521;28;20351;-53
2024/03/29 10:05:39;;;;;;;;;;;;;;;;;;5085070;28;20027;-54
2024/03/29 10:08:07;;;;;;;;;;;;;;;;;;5088131;28;20472;-54
2024/03/29 10:10:33;;;;;;;;;;;;;;;;;;5087642;28;20389;-53
2024/03/29 10:12:59;;;;;;;;;;;;;;;;;;5086567;27;20015;-53
2024/03/29 10:15:28;;;;;;;;;;;;;;;;;;5085835;28;19920;-53
2024/03/29 10:17:54;;;;;;;;;;;;;;;;;;5087972;28;19955;-54
2024/03/29 10:20:22;;;;;;;;;;;;;;;;;;5087254;28;19955;-53
2024/03/29 10:22:48;;;;;;;;;;;;;;;;;;5083956;28;19964;-53
2024/03/29 10:25:14;;;;;;;;;;;;;;;;;;5084279;28;19916;-53
2024/03/29 10:27:40;;;;;;;;;;;;;;;;;;5083979;28;20552;-52
2024/03/29 10:30:08;;;;;;;;;;;;;;;;;;5083576;28;20015;-53
2024/03/29 10:32:34;;;;;;;;;;;;;;;;;;5084999;28;20371;-52
2024/03/29 10:35:02;;;;;;;;;;;;;;;;;;5086990;28;19920;-50
2024/03/29 10:37:29;;;;;;;;;;;;;;;;;;5084925;28;19958;-54
2024/03/29 10:39:56;;;;;;;;;;;;;;;;;;5089392;27;19913;-53
2024/03/29 10:42:23;;;;;;;;;;;;;;;;;;5086279;28;19915;-51
2024/03/29 10:44:49;;;;;;;;;;;;;;;;;;5084932;28;19916;-53
2024/03/29 10:47:15;;;;;;;;;;;;;;;;;;5077953;27;19975;-51
2024/03/29 10:49:41;;;;;;;;;;;;;;;;;;5085754;28;19974;-52
2024/03/29 10:52:07;;;;;;;;;;;;;;;;;;5080523;28;19992;-52
2024/03/29 10:54:33;;;;;;;;;;;;;;;;;;5085814;28;19939;-52
2024/03/29 10:57:00;;;;;;;;;;;;;;;;;;5087795;28;19916;-51
2024/03/29 10:59:26;;;;;;;;;;;;;;;;;;5083324;28;19912;-51
2024/03/29 11:01:52;;;;;;;;;;;;;;;;;;5083552;28;19920;-52
2024/03/29 11:04:18;;;;;;;;;;;;;;;;;;5085046;28;19966;-52
2024/03/29 11:06:44;;;;;;;;;;;;;;;;;;5093322;28;19923;-53
2024/03/29 11:09:11;;;;;;;;;;;;;;;;;;5089453;28;19951;-52
2024/03/29 11:11:38;;;;;;;;;;;;;;;;;;5084727;28;19993;-51
2024/03/29 11:14:04;;;;;;;;;;;;;;;;;;5078805;28;19916;-53
2024/03/29 11:16:30;;;;;;;;;;;;;;;;;;5088753;28;19959;-52
2024/03/29 11:18:57;;;;;;;;;;;;;;;;;;5085292;28;20566;-51
2024/03/29 11:21:26;;;;;;;;;;;;;;;;;;5088177;28;20313;-52
2024/03/29 11:23:53;;;;;;;;;;;;;;;;;;5087734;28;20427;-52
2024/03/29 11:26:19;;;;;;;;;;;;;;;;;;5088572;28;20380;-51
2024/03/29 11:28:45;;;;;;;;;;;;;;;;;;5091399;28;19958;-53
2024/03/29 11:31:10;;;;;;;;;;;;;;;;;;5089940;27;20059;-53
2024/03/29 11:33:36;;;;;;;;;;;;;;;;;;5084367;28;20005;-51
2024/03/29 11:36:02;;;;;;;;;;;;;;;;;;5089285;28;19969;-51
2024/03/29 11:38:28;;;;;;;;;;;;;;;;;;5085893;28;19966;-53
2024/03/29 11:40:55;;;;;;;;;;;;;;;;;;5084355;28;19985;-53
2024/03/29 11:43:20;;;;;;;;;;;;;;;;;;5089210;28;19939;-53
2024/03/29 11:45:47;;;;;;;;;;;;;;;;;;5098208;28;20374;-53
2024/03/29 11:48:13;;;;;;;;;;;;;;;;;;5090324;28;19943;-53
2024/03/29 11:50:39;;;;;;;;;;;;;;;;;;5090300;28;19963;-53
2024/03/29 11:53:05;;;;;;;;;;;;;;;;;;5087456;28;19947;-53
2024/03/29 11:55:34;;;;;;;;;;;;;;;;;;5088683;28;19923;-53
2024/03/29 11:57:59;;;;;;;;;;;;;;;;;;5087798;28;19912;-53
2024/03/29 12:00:29;;;;;;;;;;;;;;;;;;5085686;28;20015;-53
2024/03/29 12:02:57;;;;;;;;;;;;;;;;;;5090660;28;19974;-53
2024/03/29 12:05:23;;;;;;;;;;;;;;;;;;5087046;28;20412;-52
2024/03/29 12:07:49;;;;;;;;;;;;;;;;;;5092511;28;19949;-53
2024/03/29 12:10:15;;;;;;;;;;;;;;;;;;5088660;28;19912;-53
2024/03/29 12:12:42;;;;;;;;;;;;;;;;;;5089782;28;20455;-53
2024/03/29 12:15:07;;;;;;;;;;;;;;;;;;5084838;28;19916;-53
2024/03/29 12:17:33;;;;;;;;;;;;;;;;;;5087616;28;20375;-53
2024/03/29 12:20:06;;;;;;;;;;;;;;;;;;5086967;28;19966;-53
2024/03/29 12:22:32;;;;;;;;;;;;;;;;;;5089466;28;20581;-53
2024/03/29 12:24:58;;;;;;;;;;;;;;;;;;5082581;28;20275;-53
2024/03/29 12:27:24;;;;;;;;;;;;;;;;;;5087874;28;21534;-53
2024/03/29 12:29:50;;;;;;;;;;;;;;;;;;5086148;28;19959;-53
2024/03/29 12:32:16;;;;;;;;;;;;;;;;;;5087700;28;20005;-56
2024/03/29 12:34:42;;;;;;;;;;;;;;;;;;5087201;28;20683;-53
2024/03/29 12:37:08;;;;;;;;;;;;;;;;;;5087437;28;19919;-53
2024/03/29 12:39:35;;;;;;;;;;;;;;;;;;5085237;28;20268;-53
2024/03/29 12:42:01;;;;;;;;;;;;;;;;;;5087088;28;19975;-55
2024/03/29 12:44:27;;;;;;;;;;;;;;;;;;5085835;28;19955;-53
2024/03/29 12:46:53;;;;;;;;;;;;;;;;;;5088795;28;20027;-53
2024/03/29 12:49:19;;;;;;;;;;;;;;;;;;5085027;28;20320;-53
2024/03/29 12:51:45;;;;;;;;;;;;;;;;;;5086375;28;19912;-53
2024/03/29 12:54:11;;;;;;;;;;;;;;;;;;5084153;28;20038;-53
2024/03/29 12:56:40;;;;;;;;;;;;;;;;;;5088021;28;19954;-55
2024/03/29 12:59:06;;;;;;;;;;;;;;;;;;5083110;28;19942;-57
2024/03/29 13:01:32;;;;;;;;;;;;;;;;;;5086124;28;20002;-58
2024/03/29 13:03:58;;;;;;;;;;;;;;;;;;5086875;28;19971;-56
2024/03/29 13:06:24;;;;;;;;;;;;;;;;;;5086526;28;19962;-55
2024/03/29 13:08:51;;;;;;;;;;;;;;;;;;5086354;28;19990;-56
2024/03/29 13:11:17;;;;;;;;;;;;;;;;;;5087959;28;19917;-56
2024/03/29 13:13:43;;;;;;;;;;;;;;;;;;5086606;28;19931;-56
2024/03/29 13:16:09;;;;;;;;;;;;;;;;;;5084757;28;20050;-56
2024/03/29 13:18:35;;;;;;;;;;;;;;;;;;5079998;28;19923;-57
2024/03/29 13:21:02;;;;;;;;;;;;;;;;;;5086908;28;20342;-56
2024/03/29 13:23:28;;;;;;;;;;;;;;;;;;5087151;28;19931;-56
2024/03/29 13:25:56;;;;;;;;;;;;;;;;;;5089049;28;20371;-56
2024/03/29 13:28:22;;;;;;;;;;;;;;;;;;5084868;28;19989;-57
2024/03/29 13:30:51;;;;;;;;;;;;;;;;;;5089167;28;19916;-57
2024/03/29 13:33:17;;;;;;;;;;;;;;;;;;5085178;28;20408;-57
2024/03/29 13:35:44;;;;;;;;;;;;;;;;;;5084277;28;19957;-57
2024/03/29 13:38:10;;;;;;;;;;;;;;;;;;5083551;28;19923;-57
2024/03/29 13:40:36;;;;;;;;;;;;;;;;;;5088075;28;20011;-57
2024/03/29 13:43:02;;;;;;;;;;;;;;;;;;5086263;28;20349;-57
2024/03/29 13:45:28;;;;;;;;;;;;;;;;;;5087266;28;19977;-57
2024/03/29 13:47:55;;;;;;;;;;;;;;;;;;5087365;28;20659;-57
2024/03/29 13:50:21;;;;;;;;;;;;;;;;;;5085394;28;20352;-56
2024/03/29 13:52:47;;;;;;;;;;;;;;;;;;5085158;28;19959;-58
2024/03/29 13:55:13;;;;;;;;;;;;;;;;;;5088137;28;19967;-57
2024/03/29 13:57:39;;;;;;;;;;;;;;;;;;5087521;28;19961;-57
2024/03/29 14:00:06;;;;;;;;;;;;;;;;;;5086305;28;19959;-56
2024/03/29 14:02:32;;;;;;;;;;;;;;;;;;5079524;28;20399;-57
2024/03/29 14:04:58;;;;;;;;;;;;;;;;;;5083045;28;20324;-56
2024/03/29 14:07:24;;;;;;;;;;;;;;;;;;5081721;28;19912;-55
2024/03/29 14:09:50;;;;;;;;;;;;;;;;;;5080347;28;19958;-57
2024/03/29 14:12:18;;;;;;;;;;;;;;;;;;5082741;28;20560;-57
2024/03/29 14:14:48;;;;;;;;;;;;;;;;;;5086851;28;19912;-57
2024/03/29 14:17:14;;;;;;;;;;;;;;;;;;5071487;28;19926;-52
2024/03/29 14:19:40;;;;;;;;;;;;;;;;;;5085825;28;20371;-55
2024/03/29 14:22:06;;;;;;;;;;;;;;;;;;5085523;28;19920;-53
2024/03/29 14:24:35;;;;;;;;;;;;;;;;;;5077900;28;19920;-53
2024/03/29 14:27:01;;;;;;;;;;;;;;;;;;5077744;28;19912;-54
2024/03/29 14:29:27;;;;;;;;;;;;;;;;;;5079377;28;19959;-55
2024/03/29 14:31:54;;;;;;;;;;;;;;;;;;5082826;28;19994;-55
2024/03/29 14:34:20;;;;;;;;;;;;;;;;;;5081129;28;19916;-55
2024/03/29 14:36:46;;;;;;;;;;;;;;;;;;5076098;28;19926;-54
2024/03/29 14:39:18;;;;;;;;;;;;;;;;;;5079814;28;20336;-55
2024/03/29 14:41:46;;;;;;;;;;;;;;;;;;5083761;28;19962;-54
2024/03/29 14:44:12;;;;;;;;;;;;;;;;;;5085459;28;19920;-54
2024/03/29 14:46:38;;;;;;;;;;;;;;;;;;5086751;28;19913;-54
2024/03/29 14:49:06;;;;;;;;;;;;;;;;;;5079620;28;19922;-54
2024/03/29 14:51:32;;;;;;;;;;;;;;;;;;5084984;28;19916;-54
2024/03/29 14:53:58;;;;;;;;;;;;;;;;;;5086528;28;20313;-54
2024/03/29 14:56:24;;;;;;;;;;;;;;;;;;5083790;28;20443;-54
2024/03/29 14:58:50;;;;;;;;;;;;;;;;;;5081566;28;19913;-55
2024/03/29 15:01:16;;;;;;;;;;;;;;;;;;5085062;28;20379;-54
2024/03/29 15:03:42;;;;;;;;;;;;;;;;;;5083032;28;19967;-54
2024/03/29 15:06:08;;;;;;;;;;;;;;;;;;5082890;28;19952;-54
2024/03/29 15:08:34;;;;;;;;;;;;;;;;;;5085533;28;20432;-54
2024/03/29 15:11:00;;;;;;;;;;;;;;;;;;5082008;28;20376;-55
2024/03/29 15:13:26;;;;;;;;;;;;;;;;;;5077961;28;20045;-54
2024/03/29 15:15:52;;;;;;;;;;;;;;;;;;5080382;28;19912;-54
2024/03/29 15:18:18;;;;;;;;;;;;;;;;;;5079883;28;19951;-54
2024/03/29 15:20:44;;;;;;;;;;;;;;;;;;5078115;28;19963;-54
2024/03/29 15:23:10;;;;;;;;;;;;;;;;;;5082378;28;19959;-54
2024/03/29 15:25:36;;;;;;;;;;;;;;;;;;5084965;28;19951;-54
2024/03/29 15:30:41;;;;;;;;;;;;;;;;;;5086131;28;20037;-55
2024/03/29 15:33:07;;;;;;;;;;;;;;;;;;5078313;28;19917;-54
2024/03/29 15:35:33;;;;;;;;;;;;;;;;;;5078325;28;19916;-55
2024/03/29 15:38:01;;;;;;;;;;;;;;;;;;5076382;28;19920;-56
2024/03/29 15:40:27;;;;;;;;;;;;;;;;;;5079418;28;19962;-57
2024/03/29 15:42:53;;;;;;;;;;;;;;;;;;5077391;28;19920;-58
2024/03/29 15:45:19;;;;;;;;;;;;;;;;;;5081759;28;19999;-57
2024/03/29 15:47:45;;;;;;;;;;;;;;;;;;5083537;28;20325;-57
2024/03/29 15:50:12;;;;;;;;;;;;;;;;;;5081242;28;20046;-57
2024/03/29 15:52:38;;;;;;;;;;;;;;;;;;5082087;28;19920;-56
2024/03/29 15:55:04;;;;;;;;;;;;;;;;;;5079887;28;20341;-57
2024/03/29 15:57:30;;;;;;;;;;;;;;;;;;5075742;28;20087;-56
2024/03/29 15:59:56;;;;;;;;;;;;;;;;;;5077780;28;19963;-57
2024/03/29 16:02:21;;;;;;;;;;;;;;;;;;5087806;28;19956;-57
2024/03/29 16:04:47;;;;;;;;;;;;;;;;;;5085938;28;19960;-57
2024/03/29 16:07:13;;;;;;;;;;;;;;;;;;5080939;28;19951;-57
2024/03/29 16:09:40;;;;;;;;;;;;;;;;;;5082697;28;19920;-57
2024/03/29 16:12:06;;;;;;;;;;;;;;;;;;5082810;28;19918;-54
2024/03/29 16:14:32;;;;;;;;;;;;;;;;;;5081999;28;20020;-54
2024/03/29 16:16:57;;;;;;;;;;;;;;;;;;5082752;28;20014;-54
2024/03/29 16:19:23;;;;;;;;;;;;;;;;;;5084058;28;20312;-55
2024/03/29 16:21:49;;;;;;;;;;;;;;;;;;5084848;28;20381;-55
2024/03/29 16:24:15;;;;;;;;;;;;;;;;;;5080358;28;20380;-57
2024/03/29 16:26:41;;;;;;;;;;;;;;;;;;5079510;28;20249;-57
2024/03/29 16:29:12;;;;;;;;;;;;;;;;;;5080589;28;19967;-57
2024/03/29 16:31:38;;;;;;;;;;;;;;;;;;5099302;28;19974;-57
2024/03/29 16:34:03;;;;;;;;;;;;;;;;;;5078548;28;19963;-56
2024/03/29 16:36:29;;;;;;;;;;;;;;;;;;5076843;28;19955;-57
2024/03/29 16:38:55;;;;;;;;;;;;;;;;;;5080188;28;19916;-57
2024/03/29 16:41:22;;;;;;;;;;;;;;;;;;5077915;28;20382;-56
2024/03/29 16:43:48;;;;;;;;;;;;;;;;;;5082796;28;19959;-56
2024/03/29 16:46:14;;;;;;;;;;;;;;;;;;5079800;28;20698;-56
2024/03/29 16:48:40;;;;;;;;;;;;;;;;;;5085968;28;20003;-56